sensor_id;sensor_type;location;lat;lon;timestamp;noise_LAeq;noise_LA_min;noise_LA_max;noise_LA01;noise_LA95
46749;Laerm;33775;47.992;11.864;2022-10-04T00:01:01;39.99;37.88;41.53;;
46749;Laerm;33775;47.992;11.864;2022-10-04T00:03:28;40.00;37.87;41.82;;
46749;Laerm;33775;47.992;11.864;2022-10-04T00:05:56;39.93;37.52;41.38;;
46749;Laerm;33775;47.992;11.864;2022-10-04T00:08:28;39.83;37.52;41.30;;
46749;Laerm;33775;47.992;11.864;2022-10-04T00:11:37;39.77;37.32;41.30;;
46749;Laerm;33775;47.992;11.864;2022-10-04T00:13:48;39.73;37.52;41.14;;
46749;Laerm;33775;47.992;11.864;2022-10-04T00:16:21;39.75;37.70;41.46;;
46749;Laerm;33775;47.992;11.864;2022-10-04T00:18:52;39.76;37.12;41.30;;
46749;Laerm;33775;47.992;11.864;2022-10-04T00:21:23;39.69;37.12;41.46;;
46749;Laerm;33775;47.992;11.864;2022-10-04T00:24:09;39.59;37.12;41.06;;
46749;Laerm;33775;47.992;11.864;2022-10-04T00:27:08;39.52;36.45;41.46;;
46749;Laerm;33775;47.992;11.864;2022-10-04T00:29:31;39.55;36.20;41.22;;
46749;Laerm;33775;47.992;11.864;2022-10-04T00:34:48;39.63;37.17;41.22;;
46749;Laerm;33775;47.992;11.864;2022-10-04T00:37:15;39.62;36.91;41.14;;
46749;Laerm;33775;47.992;11.864;2022-10-04T00:39:41;39.51;37.32;41.53;;
46749;Laerm;33775;47.992;11.864;2022-10-04T00:44:46;39.42;36.69;41.14;;
46749;Laerm;33775;47.992;11.864;2022-10-04T00:47:20;39.45;36.45;41.38;;
46749;Laerm;33775;47.992;11.864;2022-10-04T00:49:47;39.53;36.45;40.96;;
46749;Laerm;33775;47.992;11.864;2022-10-04T00:52:18;39.57;37.12;41.22;;
46749;Laerm;33775;47.992;11.864;2022-10-04T00:54:48;39.71;37.12;41.22;;
46749;Laerm;33775;47.992;11.864;2022-10-04T00:57:25;39.76;37.52;41.55;;
46749;Laerm;33775;47.992;11.864;2022-10-04T00:59:52;39.73;37.52;41.22;;
46749;Laerm;33775;47.992;11.864;2022-10-04T01:02:22;39.66;36.91;41.22;;
46749;Laerm;33775;47.992;11.864;2022-10-04T01:07:16;39.59;36.20;41.30;;
46749;Laerm;33775;47.992;11.864;2022-10-04T01:09:53;39.56;36.69;41.22;;
46749;Laerm;33775;47.992;11.864;2022-10-04T01:12:32;39.64;36.91;41.22;;
46749;Laerm;33775;47.992;11.864;2022-10-04T01:17:34;39.66;37.52;41.22;;
46749;Laerm;33775;47.992;11.864;2022-10-04T01:20:00;39.63;37.32;41.22;;
46749;Laerm;33775;47.992;11.864;2022-10-04T01:22:35;39.56;36.91;41.30;;
46749;Laerm;33775;47.992;11.864;2022-10-04T01:25:01;39.49;37.12;41.06;;
46749;Laerm;33775;47.992;11.864;2022-10-04T01:27:31;39.44;35.04;41.06;;
46749;Laerm;33775;47.992;11.864;2022-10-04T01:29:57;39.51;37.12;41.06;;
46749;Laerm;33775;47.992;11.864;2022-10-04T01:32:22;39.56;37.52;41.38;;
46749;Laerm;33775;47.992;11.864;2022-10-04T01:34:48;39.60;36.91;41.30;;
46749;Laerm;33775;47.992;11.864;2022-10-04T01:37:13;39.62;36.91;41.06;;
46749;Laerm;33775;47.992;11.864;2022-10-04T01:39:38;39.56;36.69;41.46;;
46749;Laerm;33775;47.992;11.864;2022-10-04T01:44:38;39.41;35.94;41.46;;
46749;Laerm;33775;47.992;11.864;2022-10-04T01:47:13;39.34;36.45;40.80;;
46749;Laerm;33775;47.992;11.864;2022-10-04T01:49:40;39.27;35.66;41.14;;
46749;Laerm;33775;47.992;11.864;2022-10-04T01:55:14;39.20;36.20;40.89;;
46749;Laerm;33775;47.992;11.864;2022-10-04T01:57:21;39.17;35.66;40.80;;
46749;Laerm;33775;47.992;11.864;2022-10-04T01:59:49;39.14;35.36;40.62;;
46749;Laerm;33775;47.992;11.864;2022-10-04T02:02:20;39.09;35.36;40.71;;
46749;Laerm;33775;47.992;11.864;2022-10-04T02:04:52;39.11;33.90;40.80;;
46749;Laerm;33775;47.992;11.864;2022-10-04T02:07:18;39.14;35.94;40.71;;
46749;Laerm;33775;47.992;11.864;2022-10-04T02:09:45;39.17;34.69;40.98;;
46749;Laerm;33775;47.992;11.864;2022-10-04T02:12:17;39.17;35.66;40.89;;
46749;Laerm;33775;47.992;11.864;2022-10-04T02:14:47;39.17;35.04;41.06;;
46749;Laerm;33775;47.992;11.864;2022-10-04T02:17:23;39.17;35.66;40.80;;
46749;Laerm;33775;47.992;11.864;2022-10-04T02:19:51;39.18;32.35;40.80;;
46749;Laerm;33775;47.992;11.864;2022-10-04T02:22:17;39.18;36.20;40.98;;
46749;Laerm;33775;47.992;11.864;2022-10-04T02:24:44;39.18;34.69;40.80;;
46749;Laerm;33775;47.992;11.864;2022-10-04T02:27:10;39.16;35.59;40.80;;
46749;Laerm;33775;47.992;11.864;2022-10-04T02:29:36;39.15;36.20;40.89;;
46749;Laerm;33775;47.992;11.864;2022-10-04T02:32:02;39.12;35.36;40.98;;
46749;Laerm;33775;47.992;11.864;2022-10-04T02:34:47;39.13;35.04;40.80;;
46749;Laerm;33775;47.992;11.864;2022-10-04T02:37:13;39.09;35.66;40.71;;
46749;Laerm;33775;47.992;11.864;2022-10-04T02:39:40;39.05;35.04;40.89;;
46749;Laerm;33775;47.992;11.864;2022-10-04T02:49:48;39.09;34.69;40.62;;
46749;Laerm;33775;47.992;11.864;2022-10-04T02:54:53;39.15;33.90;40.98;;
46749;Laerm;33775;47.992;11.864;2022-10-04T02:57:20;39.14;35.94;40.98;;
46749;Laerm;33775;47.992;11.864;2022-10-04T02:59:46;39.14;36.20;40.71;;
46749;Laerm;33775;47.992;11.864;2022-10-04T03:02:26;39.11;35.66;40.89;;
46749;Laerm;33775;47.992;11.864;2022-10-04T03:04:51;39.12;35.31;40.80;;
46749;Laerm;33775;47.992;11.864;2022-10-04T03:07:18;39.14;35.94;40.80;;
46749;Laerm;33775;47.992;11.864;2022-10-04T03:09:45;39.18;36.45;40.80;;
46749;Laerm;33775;47.992;11.864;2022-10-04T03:12:10;39.19;34.69;40.80;;
46749;Laerm;33775;47.992;11.864;2022-10-04T03:14:36;39.21;35.66;40.89;;
46749;Laerm;33775;47.992;11.864;2022-10-04T03:17:03;39.19;36.20;40.80;;
46749;Laerm;33775;47.992;11.864;2022-10-04T03:19:29;39.17;35.36;40.80;;
46749;Laerm;33775;47.992;11.864;2022-10-04T03:21:55;39.16;35.94;41.06;;
46749;Laerm;33775;47.992;11.864;2022-10-04T03:24:32;39.16;33.90;41.06;;
46749;Laerm;33775;47.992;11.864;2022-10-04T03:26:59;39.14;35.04;40.98;;
46749;Laerm;33775;47.992;11.864;2022-10-04T03:29:26;39.16;35.94;40.71;;
46749;Laerm;33775;47.992;11.864;2022-10-04T03:31:52;39.15;35.36;40.89;;
46749;Laerm;33775;47.992;11.864;2022-10-04T03:34:22;39.15;35.94;40.89;;
46749;Laerm;33775;47.992;11.864;2022-10-04T03:36:48;39.16;35.36;40.62;;
46749;Laerm;33775;47.992;11.864;2022-10-04T03:39:16;39.13;35.94;40.88;;
46749;Laerm;33775;47.992;11.864;2022-10-04T03:41:43;39.09;34.31;40.89;;
46749;Laerm;33775;47.992;11.864;2022-10-04T03:44:13;39.09;32.35;40.98;;
46749;Laerm;33775;47.992;11.864;2022-10-04T03:46:39;39.02;34.31;40.62;;
46749;Laerm;33775;47.992;11.864;2022-10-04T03:49:05;39.02;35.36;40.62;;
46749;Laerm;33775;47.992;11.864;2022-10-04T03:51:32;39.05;32.35;40.98;;
46749;Laerm;33775;47.992;11.864;2022-10-04T03:53:58;39.08;35.59;40.62;;
46749;Laerm;33775;47.992;11.864;2022-10-04T03:56:26;39.07;34.31;40.71;;
46749;Laerm;33775;47.992;11.864;2022-10-04T03:58:53;39.08;33.90;40.89;;
46749;Laerm;33775;47.992;11.864;2022-10-04T04:01:21;39.02;35.66;40.71;;
46749;Laerm;33775;47.992;11.864;2022-10-04T04:06:42;39.06;35.36;40.71;;
46749;Laerm;33775;47.992;11.864;2022-10-04T04:09:15;39.13;36.20;40.98;;
46749;Laerm;33775;47.992;11.864;2022-10-04T04:11:43;39.20;36.20;40.80;;
46749;Laerm;33775;47.992;11.864;2022-10-04T04:14:12;39.30;36.45;40.89;;
46749;Laerm;33775;47.992;11.864;2022-10-04T04:16:39;39.34;36.69;40.80;;
46749;Laerm;33775;47.992;11.864;2022-10-04T04:19:09;39.39;36.45;40.98;;
46749;Laerm;33775;47.992;11.864;2022-10-04T04:21:35;39.39;36.91;40.89;;
46749;Laerm;33775;47.992;11.864;2022-10-04T04:24:02;39.37;36.45;41.06;;
46749;Laerm;33775;47.992;11.864;2022-10-04T04:31:30;39.28;36.20;41.06;;
46749;Laerm;33775;47.992;11.864;2022-10-04T04:34:01;39.26;36.20;40.98;;
46749;Laerm;33775;47.992;11.864;2022-10-04T04:36:28;39.23;35.36;40.89;;
46749;Laerm;33775;47.992;11.864;2022-10-04T04:39:05;39.18;34.69;40.80;;
46749;Laerm;33775;47.992;11.864;2022-10-04T04:41:49;39.18;35.66;40.89;;
46749;Laerm;33775;47.992;11.864;2022-10-04T04:44:15;39.14;33.44;40.89;;
46749;Laerm;33775;47.992;11.864;2022-10-04T04:46:41;39.11;34.69;40.80;;
46749;Laerm;33775;47.992;11.864;2022-10-04T04:49:08;39.13;34.69;40.80;;
46749;Laerm;33775;47.992;11.864;2022-10-04T04:51:34;39.12;35.94;40.80;;
46749;Laerm;33775;47.992;11.864;2022-10-04T04:54:01;39.09;33.44;40.89;;
46749;Laerm;33775;47.992;11.864;2022-10-04T04:56:27;39.07;35.36;40.62;;
46749;Laerm;33775;47.992;11.864;2022-10-04T04:58:55;39.07;35.36;40.62;;
46749;Laerm;33775;47.992;11.864;2022-10-04T05:01:27;39.05;34.69;40.62;;
46749;Laerm;33775;47.992;11.864;2022-10-04T05:06:28;39.13;35.66;40.71;;
46749;Laerm;33775;47.992;11.864;2022-10-04T05:08:54;39.26;35.66;41.06;;
46749;Laerm;33775;47.992;11.864;2022-10-04T05:11:20;39.32;36.69;41.22;;
46749;Laerm;33775;47.992;11.864;2022-10-04T05:16:12;39.35;36.69;40.80;;
46749;Laerm;33775;47.992;11.864;2022-10-04T05:18:39;39.30;36.45;40.80;;
46749;Laerm;33775;47.992;11.864;2022-10-04T05:21:37;39.29;35.31;41.06;;
46749;Laerm;33775;47.992;11.864;2022-10-04T05:23:56;39.30;35.04;40.98;;
46749;Laerm;33775;47.992;11.864;2022-10-04T05:26:28;39.30;35.36;40.80;;
46749;Laerm;33775;47.992;11.864;2022-10-04T05:28:55;39.43;36.45;41.06;;
46749;Laerm;33775;47.992;11.864;2022-10-04T05:33:53;39.60;36.91;41.30;;
46749;Laerm;33775;47.992;11.864;2022-10-04T05:38:49;39.65;36.91;41.22;;
46749;Laerm;33775;47.992;11.864;2022-10-04T05:41:21;39.72;37.32;41.61;;
46749;Laerm;33775;47.992;11.864;2022-10-04T05:43:49;39.85;37.52;41.30;;
46749;Laerm;33775;47.992;11.864;2022-10-04T05:46:25;39.93;37.70;41.53;;
46749;Laerm;33775;47.992;11.864;2022-10-04T05:48:58;40.01;38.05;41.75;;
46749;Laerm;33775;47.992;11.864;2022-10-04T05:51:28;40.28;38.21;41.82;;
46749;Laerm;33775;47.992;11.864;2022-10-04T05:53:58;40.55;38.87;42.16;;
46749;Laerm;33775;47.992;11.864;2022-10-04T05:59:34;40.64;39.34;42.09;;
46749;Laerm;33775;47.992;11.864;2022-10-04T06:07:14;40.71;39.21;42.16;;
46749;Laerm;33775;47.992;11.864;2022-10-04T06:17:23;40.61;39.46;41.68;;
46749;Laerm;33775;47.992;11.864;2022-10-04T06:22:21;40.47;39.08;41.61;;
46749;Laerm;33775;47.992;11.864;2022-10-04T06:24:57;40.41;39.08;41.61;;
46749;Laerm;33775;47.992;11.864;2022-10-04T06:30:05;39.87;38.21;41.22;;
46749;Laerm;33775;47.992;11.864;2022-10-04T06:32:35;39.56;37.88;40.89;;
46749;Laerm;33775;47.992;11.864;2022-10-04T06:37:45;39.29;37.32;40.71;;
46749;Laerm;33775;47.992;11.864;2022-10-04T06:42:50;39.09;37.12;40.53;;
46749;Laerm;33775;47.992;11.864;2022-10-04T06:48:10;38.80;36.69;40.33;;
46749;Laerm;33775;47.992;11.864;2022-10-04T06:50:54;38.52;35.36;40.03;;
46749;Laerm;33775;47.992;11.864;2022-10-04T07:00:49;37.57;30.89;39.58;;
46749;Laerm;33775;47.992;11.864;2022-10-04T07:03:38;37.38;31.68;39.58;;
46749;Laerm;33775;47.992;11.864;2022-10-04T07:06:02;37.18;31.68;39.70;;
46749;Laerm;33775;47.992;11.864;2022-10-04T07:12:05;36.93;31.68;39.46;;
46749;Laerm;33775;47.992;11.864;2022-10-04T07:16:31;36.72;30.89;39.70;;
46749;Laerm;33775;47.992;11.864;2022-10-04T07:21:32;36.70;30.89;39.58;;
46749;Laerm;33775;47.992;11.864;2022-10-04T07:24:00;36.74;30.89;39.58;;
46749;Laerm;33775;47.992;11.864;2022-10-04T07:26:29;36.69;30.89;39.92;;
46749;Laerm;33775;47.992;11.864;2022-10-04T07:28:58;36.72;31.68;39.81;;
46749;Laerm;33775;47.992;11.864;2022-10-04T07:31:44;36.79;29.92;39.58;;
46749;Laerm;33775;47.992;11.864;2022-10-04T07:34:13;36.85;29.92;39.70;;
46749;Laerm;33775;47.992;11.864;2022-10-04T07:36:42;36.77;31.68;39.70;;
46749;Laerm;33775;47.992;11.864;2022-10-04T07:39:10;36.73;30.54;39.58;;
46749;Laerm;33775;47.992;11.864;2022-10-04T07:41:39;36.79;32.35;39.70;;
46749;Laerm;33775;47.992;11.864;2022-10-04T07:49:16;36.93;30.89;39.81;;
46749;Laerm;33775;47.992;11.864;2022-10-04T07:51:44;36.93;32.35;39.81;;
46749;Laerm;33775;47.992;11.864;2022-10-04T07:54:18;36.92;32.35;40.33;;
46749;Laerm;33775;47.992;11.864;2022-10-04T07:56:50;36.93;31.68;39.81;;
46749;Laerm;33775;47.992;11.864;2022-10-04T07:59:35;36.94;30.89;39.70;;
46749;Laerm;33775;47.992;11.864;2022-10-04T08:05:33;36.95;31.68;39.81;;
46749;Laerm;33775;47.992;11.864;2022-10-04T08:10:17;36.86;31.68;39.70;;
46749;Laerm;33775;47.992;11.864;2022-10-04T08:12:56;36.89;30.89;39.81;;
46749;Laerm;33775;47.992;11.864;2022-10-04T08:15:36;36.89;32.35;39.81;;
46749;Laerm;33775;47.992;11.864;2022-10-04T08:20:53;36.89;30.89;39.81;;
46749;Laerm;33775;47.992;11.864;2022-10-04T08:42:32;36.80;31.68;40.33;;
46749;Laerm;33775;47.992;11.864;2022-10-04T08:48:11;36.74;30.89;39.81;;
46749;Laerm;33775;47.992;11.864;2022-10-04T09:01:18;36.80;29.92;39.70;;
46749;Laerm;33775;47.992;11.864;2022-10-04T09:19:20;36.78;29.92;39.68;;
46749;Laerm;33775;47.992;11.864;2022-10-04T09:24:18;36.74;31.68;39.70;;
46749;Laerm;33775;47.992;11.864;2022-10-04T09:44:27;36.80;31.68;39.70;;
46749;Laerm;33775;47.992;11.864;2022-10-04T09:49:46;36.86;31.68;39.92;;
46749;Laerm;33775;47.992;11.864;2022-10-04T09:57:24;36.92;32.35;39.92;;
46749;Laerm;33775;47.992;11.864;2022-10-04T10:21:06;37.16;32.93;40.03;;
46749;Laerm;33775;47.992;11.864;2022-10-04T10:28:38;37.15;30.89;39.81;;
46749;Laerm;33775;47.992;11.864;2022-10-04T10:41:21;37.18;31.68;39.81;;
46749;Laerm;33775;47.992;11.864;2022-10-04T10:51:58;37.22;32.93;39.81;;
46749;Laerm;33775;47.992;11.864;2022-10-04T11:36:04;37.44;33.44;40.13;;
46749;Laerm;33775;47.992;11.864;2022-10-04T11:41:27;37.44;33.44;40.13;;
46749;Laerm;33775;47.992;11.864;2022-10-04T11:46:46;37.48;33.44;40.33;;
46749;Laerm;33775;47.992;11.864;2022-10-04T11:57:09;37.57;33.90;40.43;;
46749;Laerm;33775;47.992;11.864;2022-10-04T12:07:47;37.54;33.44;40.23;;
46749;Laerm;33775;47.992;11.864;2022-10-04T12:20:30;37.43;32.35;40.43;;
46749;Laerm;33775;47.992;11.864;2022-10-04T12:28:29;37.46;31.68;40.13;;
46749;Laerm;33775;47.992;11.864;2022-10-04T12:33:48;37.47;33.90;40.23;;
46749;Laerm;33775;47.992;11.864;2022-10-04T12:44:28;37.52;32.93;40.33;;
46749;Laerm;33775;47.992;11.864;2022-10-04T12:54:43;37.55;33.44;40.33;;
46749;Laerm;33775;47.992;11.864;2022-10-04T12:59:54;37.57;32.93;40.33;;
46749;Laerm;33775;47.992;11.864;2022-10-04T13:02:41;37.60;33.90;40.23;;
46749;Laerm;33775;47.992;11.864;2022-10-04T13:07:57;37.48;33.44;40.71;;
46749;Laerm;33775;47.992;11.864;2022-10-04T13:18:25;37.46;33.44;40.27;;
46749;Laerm;33775;47.992;11.864;2022-10-04T13:21:01;37.44;32.93;40.33;;
46749;Laerm;33775;47.992;11.864;2022-10-04T13:28:51;37.53;31.68;40.33;;
46749;Laerm;33775;47.992;11.864;2022-10-04T13:31:29;37.54;32.93;40.23;;
46749;Laerm;33775;47.992;11.864;2022-10-04T13:36:27;37.58;33.44;40.43;;
46749;Laerm;33775;47.992;11.864;2022-10-04T13:41:30;37.53;33.44;40.23;;
46749;Laerm;33775;47.992;11.864;2022-10-04T13:54:48;37.57;33.44;40.13;;
46749;Laerm;33775;47.992;11.864;2022-10-04T13:57:42;37.57;32.93;40.71;;
46749;Laerm;33775;47.992;11.864;2022-10-04T14:00:13;37.54;32.93;40.13;;
46749;Laerm;33775;47.992;11.864;2022-10-04T14:02:52;37.48;33.44;39.92;;
46749;Laerm;33775;47.992;11.864;2022-10-04T14:23:54;37.53;33.44;40.53;;
46749;Laerm;33775;47.992;11.864;2022-10-04T14:58:05;37.50;33.44;40.23;;
46749;Laerm;33775;47.992;11.864;2022-10-04T15:03:36;37.47;31.68;40.33;;
46749;Laerm;33775;47.992;11.864;2022-10-04T15:11:05;37.44;33.55;40.33;;
46749;Laerm;33775;47.992;11.864;2022-10-04T15:29:40;37.39;32.00;40.13;;
46749;Laerm;33775;47.992;11.864;2022-10-04T15:37:52;37.39;32.93;40.13;;
46749;Laerm;33775;47.992;11.864;2022-10-04T15:53:43;37.31;31.68;39.92;;
46749;Laerm;33775;47.992;11.864;2022-10-04T15:58:54;37.32;32.35;40.03;;
46749;Laerm;33775;47.992;11.864;2022-10-04T16:04:18;37.28;32.93;39.81;;
46749;Laerm;33775;47.992;11.864;2022-10-04T16:22:29;37.01;31.68;39.58;;
46749;Laerm;33775;47.992;11.864;2022-10-04T16:30:28;36.94;29.92;39.58;;
46749;Laerm;33775;47.992;11.864;2022-10-04T16:36:00;36.87;30.89;39.70;;
46749;Laerm;33775;47.992;11.864;2022-10-04T16:38:20;36.85;30.89;39.70;;
46749;Laerm;33775;47.992;11.864;2022-10-04T16:53:33;36.79;31.68;39.92;;
46749;Laerm;33775;47.992;11.864;2022-10-04T16:56:17;36.83;31.68;39.34;;
46749;Laerm;33775;47.992;11.864;2022-10-04T17:03:48;37.10;30.89;39.81;;
46749;Laerm;33775;47.992;11.864;2022-10-04T17:06:22;37.19;31.68;39.46;;
46749;Laerm;33775;47.992;11.864;2022-10-04T17:08:52;37.33;29.92;39.70;;
46749;Laerm;33775;47.992;11.864;2022-10-04T17:14:30;37.60;31.68;39.78;;
46749;Laerm;33775;47.992;11.864;2022-10-04T17:16:54;37.75;33.55;39.92;;
46749;Laerm;33775;47.992;11.864;2022-10-04T17:19:41;37.84;33.44;40.13;;
46749;Laerm;33775;47.992;11.864;2022-10-04T17:24:58;37.99;33.44;39.81;;
46749;Laerm;33775;47.992;11.864;2022-10-04T17:30:02;38.05;34.31;39.81;;
46749;Laerm;33775;47.992;11.864;2022-10-04T17:32:43;38.16;34.69;39.81;;
46749;Laerm;33775;47.992;11.864;2022-10-04T17:47:43;38.53;36.20;40.03;;
46749;Laerm;33775;47.992;11.864;2022-10-04T17:53:32;38.67;36.45;40.33;;
46749;Laerm;33775;47.992;11.864;2022-10-04T17:56:25;38.73;36.45;40.33;;
46749;Laerm;33775;47.992;11.864;2022-10-04T17:58:54;38.79;36.69;40.33;;
46749;Laerm;33775;47.992;11.864;2022-10-04T18:01:30;38.89;36.69;40.62;;
46749;Laerm;33775;47.992;11.864;2022-10-04T18:06:36;38.99;37.12;40.53;;
46749;Laerm;33775;47.992;11.864;2022-10-04T18:09:07;38.99;36.45;40.53;;
46749;Laerm;33775;47.992;11.864;2022-10-04T18:22:00;39.40;37.70;40.89;;
46749;Laerm;33775;47.992;11.864;2022-10-04T18:24:29;39.49;37.52;40.89;;
46749;Laerm;33775;47.992;11.864;2022-10-04T18:26:58;39.55;37.70;40.98;;
46749;Laerm;33775;47.992;11.864;2022-10-04T18:29:37;39.60;37.52;41.06;;
46749;Laerm;33775;47.992;11.864;2022-10-04T18:32:15;39.62;37.52;40.98;;
46749;Laerm;33775;47.992;11.864;2022-10-04T18:34:55;39.68;37.70;41.06;;
46749;Laerm;33775;47.992;11.864;2022-10-04T18:39:54;39.69;38.05;40.98;;
46749;Laerm;33775;47.992;11.864;2022-10-04T18:42:30;39.65;37.88;41.06;;
46749;Laerm;33775;47.992;11.864;2022-10-04T18:45:00;39.65;37.87;40.98;;
46749;Laerm;33775;47.992;11.864;2022-10-04T18:47:35;39.58;37.70;41.14;;
46749;Laerm;33775;47.992;11.864;2022-10-04T18:50:13;39.65;37.88;41.06;;
46749;Laerm;33775;47.992;11.864;2022-10-04T18:55:14;39.70;38.02;40.98;;
46749;Laerm;33775;47.992;11.864;2022-10-04T18:57:46;39.73;38.05;40.98;;
46749;Laerm;33775;47.992;11.864;2022-10-04T19:00:35;39.77;38.21;41.06;;
46749;Laerm;33775;47.992;11.864;2022-10-04T19:03:58;39.74;37.70;41.06;;
46749;Laerm;33775;47.992;11.864;2022-10-04T19:06:28;39.75;37.88;41.38;;
46749;Laerm;33775;47.992;11.864;2022-10-04T19:08:57;39.74;37.52;41.38;;
46749;Laerm;33775;47.992;11.864;2022-10-04T19:11:37;39.76;37.12;41.22;;
46749;Laerm;33775;47.992;11.864;2022-10-04T19:14:17;39.77;37.70;40.98;;
46749;Laerm;33775;47.992;11.864;2022-10-04T19:16:54;39.77;37.88;41.14;;
46749;Laerm;33775;47.992;11.864;2022-10-04T19:45:47;39.86;37.88;41.14;;
46749;Laerm;33775;47.992;11.864;2022-10-04T19:48:19;39.85;37.70;41.22;;
46749;Laerm;33775;47.992;11.864;2022-10-04T19:50:47;39.90;37.70;41.22;;
46749;Laerm;33775;47.992;11.864;2022-10-04T19:53:20;39.85;37.70;41.14;;
46749;Laerm;33775;47.992;11.864;2022-10-04T19:55:52;39.81;37.70;41.06;;
46749;Laerm;33775;47.992;11.864;2022-10-04T20:00:51;39.82;37.32;41.22;;
46749;Laerm;33775;47.992;11.864;2022-10-04T20:03:17;39.74;37.52;41.38;;
46749;Laerm;33775;47.992;11.864;2022-10-04T20:05:43;39.77;37.88;41.06;;
46749;Laerm;33775;47.992;11.864;2022-10-04T20:08:09;39.80;37.88;41.22;;
46749;Laerm;33775;47.992;11.864;2022-10-04T20:10:35;39.77;37.70;41.22;;
46749;Laerm;33775;47.992;11.864;2022-10-04T20:13:18;39.81;37.70;41.14;;
46749;Laerm;33775;47.992;11.864;2022-10-04T20:26:03;39.78;37.52;41.30;;
46749;Laerm;33775;47.992;11.864;2022-10-04T20:30:55;39.82;37.88;41.38;;
46749;Laerm;33775;47.992;11.864;2022-10-04T20:38:52;39.63;37.12;41.14;;
46749;Laerm;33775;47.992;11.864;2022-10-04T20:43:59;39.69;37.52;41.14;;
46749;Laerm;33775;47.992;11.864;2022-10-04T20:46:35;39.72;37.52;41.14;;
46749;Laerm;33775;47.992;11.864;2022-10-04T20:49:02;39.73;37.32;41.14;;
46749;Laerm;33775;47.992;11.864;2022-10-04T20:51:28;39.69;37.52;41.22;;
46749;Laerm;33775;47.992;11.864;2022-10-04T20:53:56;39.64;37.12;41.14;;
46749;Laerm;33775;47.992;11.864;2022-10-04T20:56:23;39.55;36.69;41.06;;
46749;Laerm;33775;47.992;11.864;2022-10-04T20:59:00;39.59;36.91;41.38;;
46749;Laerm;33775;47.992;11.864;2022-10-04T21:06:51;39.83;37.12;41.61;;
46749;Laerm;33775;47.992;11.864;2022-10-04T21:09:16;39.86;37.52;41.22;;
46749;Laerm;33775;47.992;11.864;2022-10-04T21:11:42;39.79;37.32;41.53;;
46749;Laerm;33775;47.992;11.864;2022-10-04T21:14:19;39.74;37.52;41.38;;
46749;Laerm;33775;47.992;11.864;2022-10-04T21:16:46;39.66;36.69;41.30;;
46749;Laerm;33775;47.992;11.864;2022-10-04T21:21:56;39.60;37.32;41.06;;
46749;Laerm;33775;47.992;11.864;2022-10-04T21:25:04;39.79;37.32;41.22;;
46749;Laerm;33775;47.992;11.864;2022-10-04T21:27:11;39.86;37.70;41.30;;
46749;Laerm;33775;47.992;11.864;2022-10-04T21:29:37;39.83;37.32;41.46;;
46749;Laerm;33775;47.992;11.864;2022-10-04T21:32:03;39.76;37.12;41.22;;
46749;Laerm;33775;47.992;11.864;2022-10-04T21:34:28;39.76;36.69;41.46;;
46749;Laerm;33775;47.992;11.864;2022-10-04T21:36:53;39.76;36.98;41.30;;
46749;Laerm;33775;47.992;11.864;2022-10-04T21:39:19;39.73;37.52;41.22;;
46749;Laerm;33775;47.992;11.864;2022-10-04T21:41:44;39.73;37.52;41.22;;
46749;Laerm;33775;47.992;11.864;2022-10-04T21:44:09;39.75;37.12;41.14;;
46749;Laerm;33775;47.992;11.864;2022-10-04T21:46:35;39.69;36.45;41.14;;
46749;Laerm;33775;47.992;11.864;2022-10-04T21:49:01;39.64;36.91;41.46;;
46749;Laerm;33775;47.992;11.864;2022-10-04T21:51:26;39.58;36.20;41.22;;
46749;Laerm;33775;47.992;11.864;2022-10-04T21:53:51;39.48;37.12;41.06;;
46749;Laerm;33775;47.992;11.864;2022-10-04T21:56:16;39.43;36.20;40.98;;
46749;Laerm;33775;47.992;11.864;2022-10-04T21:58:41;39.45;36.69;40.98;;
46749;Laerm;33775;47.992;11.864;2022-10-04T22:01:07;39.44;36.45;40.98;;
46749;Laerm;33775;47.992;11.864;2022-10-04T22:03:32;39.48;36.69;40.98;;
46749;Laerm;33775;47.992;11.864;2022-10-04T22:05:57;39.51;36.69;41.14;;
46749;Laerm;33775;47.992;11.864;2022-10-04T22:08:22;39.55;36.45;40.89;;
46749;Laerm;33775;47.992;11.864;2022-10-04T22:10:47;39.55;36.69;40.98;;
46749;Laerm;33775;47.992;11.864;2022-10-04T22:13:13;39.62;37.32;41.14;;
46749;Laerm;33775;47.992;11.864;2022-10-04T22:15:38;39.68;37.32;41.22;;
46749;Laerm;33775;47.992;11.864;2022-10-04T22:18:03;39.65;36.91;41.19;;
46749;Laerm;33775;47.992;11.864;2022-10-04T22:20:29;39.58;37.12;41.14;;
46749;Laerm;33775;47.992;11.864;2022-10-04T22:22:54;39.51;35.66;41.06;;
46749;Laerm;33775;47.992;11.864;2022-10-04T22:25:23;39.45;36.91;40.89;;
46749;Laerm;33775;47.992;11.864;2022-10-04T22:27:49;39.43;36.45;41.06;;
46749;Laerm;33775;47.992;11.864;2022-10-04T22:30:26;39.40;35.94;41.38;;
46749;Laerm;33775;47.992;11.864;2022-10-04T22:32:55;39.35;35.36;41.22;;
46749;Laerm;33775;47.992;11.864;2022-10-04T22:35:21;39.39;35.94;40.89;;
46749;Laerm;33775;47.992;11.864;2022-10-04T22:37:47;39.37;36.20;41.14;;
46749;Laerm;33775;47.992;11.864;2022-10-04T22:40:22;39.38;35.66;41.14;;
46749;Laerm;33775;47.992;11.864;2022-10-04T22:42:48;39.40;36.69;40.98;;
46749;Laerm;33775;47.992;11.864;2022-10-04T22:45:16;39.34;36.45;40.98;;
46749;Laerm;33775;47.992;11.864;2022-10-04T22:47:42;39.34;35.36;41.22;;
46749;Laerm;33775;47.992;11.864;2022-10-04T22:50:11;39.30;36.69;40.89;;
46749;Laerm;33775;47.992;11.864;2022-10-04T22:52:41;39.28;36.20;41.06;;
46749;Laerm;33775;47.992;11.864;2022-10-04T22:55:07;39.30;35.94;40.89;;
46749;Laerm;33775;47.992;11.864;2022-10-04T22:57:39;39.45;36.69;41.14;;
46749;Laerm;33775;47.992;11.864;2022-10-04T23:00:05;39.51;36.69;41.22;;
46749;Laerm;33775;47.992;11.864;2022-10-04T23:02:30;39.50;36.45;41.30;;
46749;Laerm;33775;47.992;11.864;2022-10-04T23:04:57;39.53;37.12;41.22;;
46749;Laerm;33775;47.992;11.864;2022-10-04T23:07:24;39.68;36.69;41.53;;
46749;Laerm;33775;47.992;11.864;2022-10-04T23:09:50;39.69;37.52;41.30;;
46749;Laerm;33775;47.992;11.864;2022-10-04T23:12:15;39.68;37.35;41.61;;
46749;Laerm;33775;47.992;11.864;2022-10-04T23:14:40;39.71;37.12;41.30;;
46749;Laerm;33775;47.992;11.864;2022-10-04T23:17:15;39.67;37.12;41.89;;
46749;Laerm;33775;47.992;11.864;2022-10-04T23:19:43;39.65;37.12;41.14;;
46749;Laerm;33775;47.992;11.864;2022-10-04T23:22:08;39.73;36.69;41.38;;
46749;Laerm;33775;47.992;11.864;2022-10-04T23:24:38;39.81;37.32;41.61;;
46749;Laerm;33775;47.992;11.864;2022-10-04T23:27:05;39.79;37.70;41.30;;
46749;Laerm;33775;47.992;11.864;2022-10-04T23:29:36;39.77;37.32;41.53;;
46749;Laerm;33775;47.992;11.864;2022-10-04T23:32:08;39.89;37.52;41.30;;
46749;Laerm;33775;47.992;11.864;2022-10-04T23:34:34;39.97;37.88;41.68;;
46749;Laerm;33775;47.992;11.864;2022-10-04T23:37:00;39.85;37.32;41.61;;
46749;Laerm;33775;47.992;11.864;2022-10-04T23:39:26;39.69;36.20;41.22;;
46749;Laerm;33775;47.992;11.864;2022-10-04T23:41:52;39.59;37.32;41.06;;
46749;Laerm;33775;47.992;11.864;2022-10-04T23:44:19;39.61;37.12;41.30;;